Saturday, April 19, 2014, 2:58 AM EDT

KRDG, Reading Regional Airport

Location: Reading, PA, United States Lat: 40.367
Local Time: 2:58 AM EDT ( 6:58 GMT) Lon: -75.967
Time Zone: US/Eastern Elev: 344 ft

Show me the last for .
Show Decoded

2014-04-19 01:54 METAR KRDG 190554Z 00000KT 10SM CLR 07/01 A3026 RMK AO2 SLP253 T00670011 10106
                 20061 55003 =
2014-04-19 00:54 METAR KRDG 190454Z 00000KT 10SM CLR 08/M01 A3025 RMK AO2 SLP251 T00781006
                 401330028 =
2014-04-18 23:54 METAR KRDG 190354Z 22003KT 10SM CLR 08/00 A3026 RMK AO2 SLP253 T00830000 =
2014-04-18 22:54 METAR KRDG 190254Z AUTO 21005KT 10SM CLR 08/01 A3027 RMK AO2 SLP256 T00830006
                 58000 =
2014-04-18 21:54 METAR KRDG 190154Z AUTO 22005KT 10SM CLR 09/02 A3028 RMK AO2 SLP261 T00890017 =
2014-04-18 20:54 METAR KRDG 190054Z AUTO 00000KT 10SM CLR 11/00 A3028 RMK AO2 SLP260 T01060000 =
2014-04-18 19:54 METAR KRDG 182354Z AUTO 25004KT 10SM CLR 11/01 A3027 RMK AO2 SLP257 T01060006
                 10133 20100 56015 =
2014-04-18 18:54 METAR KRDG 182254Z AUTO 22005KT 10SM CLR 12/01 A3028 RMK AO2 SLP259 T01170006 =
2014-04-18 17:54 METAR KRDG 182154Z 24007KT 10SM CLR 12/01 A3030 RMK AO2 SLP265 T01220006 =
2014-04-18 16:54 METAR KRDG 182054Z 26003KT 10SM CLR 13/00 A3031 RMK AO2 SLP271 T01330000 56030 =
2014-04-18 15:54 METAR KRDG 181954Z 16005KT 10SM CLR 12/M01 A3033 RMK AO2 SLP278 T01221011 =
2014-04-18 14:54 METAR KRDG 181854Z 18007KT 10SM CLR 12/M01 A3036 RMK AO2 SLP288 T01171011 =
2014-04-18 13:54 METAR KRDG 181754Z 14006KT 10SM CLR 10/M01 A3040 RMK AO2 SLP302 T01001011 10100
                 20033 58022 =
2014-04-18 12:54 METAR KRDG 181654Z VRB03KT 10SM CLR 09/M01 A3044 RMK AO2 SLP314 T00891011 =
2014-04-18 11:54 METAR KRDG 181554Z 17007KT 100V220 10SM CLR 07/M01 A3046 RMK AO2 SLP322
                 T00721011 =
2014-04-18 10:54 METAR KRDG 181454Z VRB05KT 10SM FEW023 06/M02 A3047 RMK AO2 SLP325 T00611017
                 58016 =
2014-04-18 09:54 METAR KRDG 181354Z VRB05KT 10SM FEW023 04/M02 A3049 RMK AO2 SLP332 T00441022 =
2014-04-18 08:54 METAR KRDG 181254Z 00000KT 10SM OVC023 04/M02 A3050 RMK AO2 SLP336 T00391022 =
2014-04-18 07:54 METAR KRDG 181154Z 15006KT 10SM OVC023 03/M02 A3052 RMK AO2 SLP341 T00331022
                 10033 20028 53002 =
2014-04-18 06:54 METAR KRDG 181054Z 11004KT 10SM OVC023 03/M03 A3052 RMK AO2 SLP341 T00281028 =
2014-04-18 05:54 METAR KRDG 180954Z 00000KT 10SM OVC023 03/M03 A3049 RMK AO2 SLP332 T00281028 =
2014-04-18 04:54 METAR KRDG 180854Z 16005KT 10SM OVC023 03/M02 A3051 RMK AO2 SLP338 T00281022
                 55024 =
2014-04-18 03:54 METAR KRDG 180754Z 08007KT 10SM OVC023 03/M02 A3050 RMK AO2 SLP335 T00331022 =

Support USWX by starting your Amazon purchase here.